createdAt,value
2023-04-02T00:02:33.438Z,17.88
2023-04-02T00:05:55.029Z,17.67
2023-04-02T00:08:26.658Z,13.48
2023-04-02T00:10:57.848Z,13.57
2023-04-02T00:13:33.336Z,13.02
2023-04-02T00:16:03.976Z,13.07
2023-04-02T00:18:34.042Z,12.88
2023-04-02T00:21:11.150Z,13.07
2023-04-02T00:23:41.206Z,13.57
2023-04-02T00:26:23.117Z,13.52
2023-04-02T00:28:51.956Z,15.10
2023-04-02T00:31:21.628Z,14.50
2023-04-02T00:33:50.974Z,14.70
2023-04-02T00:36:22.107Z,16.13
2023-04-02T00:38:50.599Z,13.45
2023-04-02T00:41:27.136Z,13.15
2023-04-02T00:43:57.831Z,12.20
2023-04-02T00:46:30.066Z,11.30
2023-04-02T00:49:02.671Z,12.23
2023-04-02T00:51:35.909Z,11.88
2023-04-02T00:54:07.546Z,10.95
2023-04-02T00:56:42.430Z,11.02
2023-04-02T00:59:20.484Z,10.63
2023-04-02T01:01:54.289Z,10.25
2023-04-02T01:04:34.652Z,11.75
2023-04-02T01:07:06.684Z,11.07
2023-04-02T01:10:09.206Z,10.88
2023-04-02T01:15:30.354Z,10.55
2023-04-02T01:18:20.759Z,9.63
2023-04-02T01:21:10.247Z,9.23
2023-04-02T01:23:52.745Z,10.38
2023-04-02T01:29:06.771Z,8.27
2023-04-02T01:31:36.092Z,8.93
2023-04-02T01:34:06.991Z,9.25
2023-04-02T01:36:42.183Z,9.60
2023-04-02T01:39:19.767Z,9.52
2023-04-02T01:41:52.615Z,9.63
2023-04-02T01:44:27.876Z,8.20
2023-04-02T01:46:58.799Z,9.05
2023-04-02T01:49:27.172Z,8.23
2023-04-02T01:51:57.253Z,8.43
2023-04-02T01:54:28.905Z,9.20
2023-04-02T01:56:58.214Z,9.40
2023-04-02T01:59:28.977Z,8.32
2023-04-02T02:02:02.699Z,8.70
2023-04-02T02:04:31.867Z,8.75
2023-04-02T02:07:01.763Z,9.23
2023-04-02T02:09:33.260Z,9.57
2023-04-02T02:12:02.806Z,9.37
2023-04-02T02:14:33.305Z,10.27
2023-04-02T02:17:04.217Z,11.10
2023-04-02T02:19:37.598Z,9.90
2023-04-02T02:22:13.045Z,11.27
2023-04-02T02:24:42.238Z,10.18
2023-04-02T02:27:37.814Z,10.05
2023-04-02T02:30:14.180Z,9.65
2023-04-02T02:32:49.058Z,8.98
2023-04-02T02:35:21.773Z,9.52
2023-04-02T02:37:56.146Z,10.38
2023-04-02T02:40:31.094Z,10.30
2023-04-02T02:43:02.825Z,10.38
2023-04-02T02:45:37.673Z,10.63
2023-04-02T02:48:12.030Z,10.57
2023-04-02T02:50:41.205Z,11.10
2023-04-02T02:53:18.230Z,10.45
2023-04-02T02:55:47.255Z,11.90
2023-04-02T02:58:19.020Z,11.15
2023-04-02T03:00:49.005Z,11.98
2023-04-02T03:03:21.835Z,10.50
2023-04-02T03:05:53.797Z,10.45
2023-04-02T03:08:28.804Z,10.32
2023-04-02T03:11:04.840Z,9.43
2023-04-02T03:13:36.924Z,9.48
2023-04-02T03:16:12.334Z,9.68
2023-04-02T03:18:47.004Z,9.02
2023-04-02T03:21:29.240Z,9.52
2023-04-02T03:24:01.881Z,9.40
2023-04-02T03:26:35.102Z,8.63
2023-04-02T03:29:07.500Z,10.00
2023-04-02T03:34:13.106Z,8.25
2023-04-02T03:36:49.936Z,9.15
2023-04-02T03:39:23.778Z,9.18
2023-04-02T03:41:55.929Z,9.02
2023-04-02T03:44:29.614Z,8.23
2023-04-02T03:47:02.980Z,8.05
2023-04-02T03:49:38.500Z,7.80
2023-04-02T03:52:11.740Z,7.82
2023-04-02T03:54:40.796Z,8.05
2023-04-02T04:00:01.095Z,8.05
2023-04-02T04:02:42.503Z,8.70
2023-04-02T04:05:23.807Z,9.00
2023-04-02T04:07:54.427Z,8.10
2023-04-02T04:10:27.151Z,8.75
2023-04-02T04:13:02.363Z,8.75
2023-04-02T04:15:34.741Z,8.63
2023-04-02T04:18:10.499Z,7.80
2023-04-02T04:20:47.796Z,8.35
2023-04-02T04:23:25.897Z,8.70
2023-04-02T04:25:59.913Z,7.90
2023-04-02T04:28:32.680Z,8.75
2023-04-02T04:31:07.248Z,8.45
2023-04-02T04:33:43.110Z,8.57
2023-04-02T04:36:28.655Z,8.23
2023-04-02T04:38:59.522Z,9.20
2023-04-02T04:41:32.868Z,9.75
2023-04-02T04:44:07.790Z,9.77
2023-04-02T04:46:42.323Z,9.60
2023-04-02T04:49:17.081Z,9.82
2023-04-02T04:51:51.094Z,9.95
2023-04-02T04:54:20.126Z,9.65
2023-04-02T04:56:50.951Z,9.90
2023-04-02T04:59:23.744Z,9.90
2023-04-02T05:01:56.775Z,9.48
2023-04-02T05:04:31.104Z,8.80
2023-04-02T05:07:04.302Z,8.55
2023-04-02T05:09:37.035Z,8.07
2023-04-02T05:12:13.185Z,7.72
2023-04-02T05:14:46.879Z,6.97
2023-04-02T05:17:20.643Z,7.90
2023-04-02T05:19:56.615Z,6.78
2023-04-02T05:22:30.946Z,6.95
2023-04-02T05:25:13.446Z,6.57
2023-04-02T05:30:33.929Z,7.47
2023-04-02T05:33:05.151Z,7.00
2023-04-02T05:35:38.987Z,7.25
2023-04-02T05:38:07.683Z,8.45
2023-04-02T05:40:41.098Z,7.80
2023-04-02T05:43:11.658Z,7.75
2023-04-02T05:45:42.335Z,8.02
2023-04-02T05:48:17.117Z,7.57
2023-04-02T05:50:50.032Z,7.25
2023-04-02T05:53:23.262Z,7.90
2023-04-02T05:55:55.785Z,7.97
2023-04-02T05:58:36.381Z,7.75
2023-04-02T06:01:21.055Z,7.72
2023-04-02T06:03:57.262Z,7.82
2023-04-02T06:06:43.952Z,7.88
2023-04-02T06:09:17.847Z,6.25
2023-04-02T06:11:48.833Z,6.45
2023-04-02T06:14:18.547Z,5.70
2023-04-02T06:16:47.298Z,5.40
2023-04-02T06:19:21.556Z,5.45
2023-04-02T06:21:53.774Z,5.72
2023-04-02T06:24:26.363Z,5.88
2023-04-02T06:26:58.715Z,5.70
2023-04-02T06:32:00.802Z,5.55
2023-04-02T06:34:30.875Z,5.20
2023-04-02T06:37:04.846Z,5.10
2023-04-02T06:39:33.284Z,4.85
2023-04-02T06:42:04.037Z,4.90
2023-04-02T06:44:36.331Z,4.93
2023-04-02T06:47:08.759Z,5.22
2023-04-02T06:49:43.450Z,5.07
2023-04-02T06:52:19.355Z,4.68
2023-04-02T06:54:48.385Z,5.00
2023-04-02T06:57:17.175Z,4.40
2023-04-02T06:59:45.426Z,5.30
2023-04-02T07:02:24.285Z,4.97
2023-04-02T07:04:52.717Z,4.75
2023-04-02T07:07:22.099Z,5.10
2023-04-02T07:09:50.286Z,3.97
2023-04-02T07:12:23.760Z,4.63
2023-04-02T07:14:52.029Z,4.78
2023-04-02T07:17:21.427Z,4.47
2023-04-02T07:19:50.296Z,4.50
2023-04-02T07:22:18.784Z,4.18
2023-04-02T07:24:48.240Z,4.93
2023-04-02T07:27:16.898Z,4.10
2023-04-02T07:29:45.463Z,4.63
2023-04-02T07:32:14.830Z,3.95
2023-04-02T07:34:43.037Z,3.70
2023-04-02T07:37:15.116Z,4.20
2023-04-02T07:39:43.114Z,3.65
2023-04-02T07:42:12.498Z,4.20
2023-04-02T07:44:40.635Z,3.88
2023-04-02T07:47:10.358Z,4.22
2023-04-02T07:49:38.331Z,4.20
2023-04-02T07:52:06.868Z,4.00
2023-04-02T07:54:35.817Z,4.15
2023-04-02T07:57:03.980Z,4.15
2023-04-02T07:59:33.329Z,4.65
2023-04-02T08:02:02.374Z,3.58
2023-04-02T08:04:30.542Z,3.85
2023-04-02T08:06:58.562Z,3.45
2023-04-02T08:09:27.091Z,4.20
2023-04-02T08:11:55.075Z,3.88
2023-04-02T08:14:23.044Z,3.30
2023-04-02T08:16:54.071Z,3.58
2023-04-02T08:19:22.831Z,3.53
2023-04-02T08:21:51.993Z,3.60
2023-04-02T08:24:20.708Z,3.60
2023-04-02T08:26:49.913Z,3.50
2023-04-02T08:29:18.395Z,3.38
2023-04-02T08:31:46.642Z,3.38
2023-04-02T08:34:16.306Z,3.58
2023-04-02T08:36:46.579Z,3.45
2023-04-02T08:39:14.899Z,3.45
2023-04-02T08:41:49.444Z,3.10
2023-04-02T08:44:32.328Z,2.92
2023-04-02T08:47:04.790Z,2.88
2023-04-02T08:52:05.778Z,3.42
2023-04-02T08:54:38.638Z,3.05
2023-04-02T08:57:13.672Z,3.20
2023-04-02T08:59:43.120Z,3.63
2023-04-02T09:02:32.289Z,3.33
2023-04-02T09:05:06.374Z,3.17
2023-04-02T09:07:35.292Z,3.63
2023-04-02T09:10:04.403Z,3.22
2023-04-02T09:12:33.887Z,2.83
2023-04-02T09:15:18.445Z,3.35
2023-04-02T09:17:54.108Z,3.17
2023-04-02T09:20:26.300Z,2.78
2023-04-02T09:22:56.670Z,2.88
2023-04-02T09:25:27.390Z,2.70
2023-04-02T09:27:58.347Z,3.13
2023-04-02T09:30:41.526Z,3.25
2023-04-02T09:33:09.983Z,3.00
2023-04-02T09:35:56.392Z,3.33
2023-04-02T09:38:28.955Z,3.25
2023-04-02T09:41:00.765Z,3.20
2023-04-02T09:43:30.782Z,3.00
2023-04-02T09:46:01.439Z,2.30
2023-04-02T09:48:32.012Z,2.50
2023-04-02T09:51:22.870Z,3.15
2023-04-02T09:53:52.779Z,2.13
2023-04-02T09:56:23.127Z,2.95
2023-04-02T09:59:04.453Z,2.92
2023-04-02T10:01:34.860Z,3.05
2023-04-02T10:04:04.830Z,2.65
2023-04-02T10:06:35.219Z,2.70
2023-04-02T10:09:21.613Z,2.50
2023-04-02T10:11:50.882Z,2.70
2023-04-02T10:14:22.707Z,2.83
2023-04-02T10:16:52.832Z,2.20
2023-04-02T10:19:28.725Z,2.50
2023-04-02T10:22:02.046Z,2.60
2023-04-02T10:24:30.748Z,2.40
2023-04-02T10:27:06.801Z,2.70
2023-04-02T10:30:02.797Z,2.50
2023-04-02T10:32:38.333Z,2.20
2023-04-02T10:35:15.812Z,2.70
2023-04-02T10:38:17.309Z,2.53
2023-04-02T10:40:49.769Z,2.53
2023-04-02T10:43:42.169Z,2.70
2023-04-02T10:46:19.639Z,2.55
2023-04-02T10:48:55.248Z,2.33
2023-04-02T10:51:33.133Z,2.35
2023-04-02T10:54:17.160Z,2.75
2023-04-02T10:56:51.100Z,2.63
2023-04-02T10:59:24.112Z,2.50
2023-04-02T11:01:53.844Z,2.35
2023-04-02T11:04:28.818Z,2.60
2023-04-02T11:07:13.163Z,2.38
2023-04-02T11:09:46.859Z,2.63
2023-04-02T11:12:23.174Z,2.25
2023-04-02T11:14:53.396Z,2.03
2023-04-02T11:17:22.371Z,2.08
2023-04-02T11:19:50.418Z,2.25
2023-04-02T11:22:21.125Z,2.28
2023-04-02T11:24:52.007Z,1.73
2023-04-02T11:27:25.666Z,2.42
2023-04-02T11:29:59.373Z,1.90
2023-04-02T11:32:35.878Z,2.17
2023-04-02T11:35:39.751Z,1.98
2023-04-02T11:38:45.128Z,2.28
2023-04-02T11:41:14.784Z,2.00
2023-04-02T11:43:51.840Z,2.65
2023-04-02T11:46:56.308Z,1.73
2023-04-02T11:49:42.252Z,2.25
2023-04-02T11:52:28.058Z,2.20
2023-04-02T11:55:02.044Z,1.73
2023-04-02T11:57:48.212Z,1.67
2023-04-02T12:00:34.114Z,1.98
2023-04-02T12:03:32.812Z,1.95
2023-04-02T12:06:07.307Z,1.95
2023-04-02T12:08:56.955Z,1.70
2023-04-02T12:11:36.543Z,2.08
2023-04-02T12:14:29.024Z,2.20
2023-04-02T12:16:57.902Z,1.85
2023-04-02T12:19:26.946Z,2.00
2023-04-02T12:21:56.518Z,1.98
2023-04-02T12:24:31.174Z,2.03
2023-04-02T12:27:15.593Z,1.70
2023-04-02T12:29:45.502Z,2.10
2023-04-02T12:32:22.600Z,1.90
2023-04-02T12:34:52.363Z,2.35
2023-04-02T12:37:25.871Z,1.67
2023-04-02T12:39:56.292Z,2.15
2023-04-02T12:42:29.125Z,2.40
2023-04-02T12:44:58.433Z,1.95
2023-04-02T12:47:27.374Z,1.80
2023-04-02T12:49:57.228Z,2.22
2023-04-02T12:52:28.834Z,2.03
2023-04-02T12:54:58.758Z,1.90
2023-04-02T12:57:40.369Z,2.03
2023-04-02T13:00:37.114Z,2.13
2023-04-02T13:03:21.227Z,1.88
2023-04-02T13:05:55.611Z,2.00
2023-04-02T13:08:27.203Z,1.73
2023-04-02T13:10:57.512Z,1.90
2023-04-02T13:13:30.093Z,2.10
2023-04-02T13:16:05.859Z,1.90
2023-04-02T13:18:36.538Z,1.98
2023-04-02T13:21:06.487Z,1.98
2023-04-02T13:23:37.746Z,2.00
2023-04-02T13:26:17.292Z,2.15
2023-04-02T13:28:56.397Z,2.10
2023-04-02T13:31:25.980Z,2.20
2023-04-02T13:33:54.009Z,1.80
2023-04-02T13:36:22.074Z,2.00
2023-04-02T13:38:50.088Z,2.40
2023-04-02T13:41:22.589Z,2.22
2023-04-02T13:43:51.250Z,2.40
2023-04-02T13:46:23.043Z,2.00
2023-04-02T13:48:53.939Z,2.10
2023-04-02T13:51:25.530Z,2.00
2023-04-02T13:53:57.956Z,2.22
2023-04-02T13:56:26.332Z,1.92
2023-04-02T13:58:54.370Z,2.05
2023-04-02T14:01:24.767Z,1.98
2023-04-02T14:03:55.659Z,1.60
2023-04-02T14:06:31.874Z,1.92
2023-04-02T14:09:06.599Z,1.73
2023-04-02T14:11:46.829Z,2.03
2023-04-02T14:14:33.062Z,2.13
2023-04-02T14:17:12.270Z,1.67
2023-04-02T14:19:54.114Z,2.10
2023-04-02T14:22:33.736Z,1.40
2023-04-02T14:25:11.593Z,1.80
2023-04-02T14:27:47.073Z,1.95
2023-04-02T14:30:21.230Z,1.75
2023-04-02T14:32:56.732Z,2.03
2023-04-02T14:35:34.481Z,1.90
2023-04-02T14:38:13.077Z,1.60
2023-04-02T14:40:49.406Z,2.05
2023-04-02T14:43:21.842Z,1.77
2023-04-02T14:45:58.574Z,1.73
2023-04-02T14:48:45.318Z,1.80
2023-04-02T14:51:23.176Z,1.67
2023-04-02T14:53:59.410Z,1.70
2023-04-02T14:56:27.628Z,1.75
2023-04-02T14:59:08.328Z,1.80
2023-04-02T15:01:41.806Z,2.17
2023-04-02T15:04:15.051Z,1.73
2023-04-02T15:06:48.870Z,1.73
2023-04-02T15:09:21.646Z,1.90
2023-04-02T15:11:52.312Z,3.13
2023-04-02T15:14:24.516Z,1.83
2023-04-02T15:16:52.536Z,1.63
2023-04-02T15:19:20.907Z,1.60
2023-04-02T15:24:37.863Z,1.63
2023-04-02T15:27:25.193Z,1.95
2023-04-02T15:29:58.950Z,2.10
2023-04-02T15:32:36.667Z,2.35
2023-04-02T15:35:25.778Z,1.60
2023-04-02T15:38:03.350Z,1.63
2023-04-02T15:40:40.445Z,1.85
2023-04-02T15:43:19.847Z,1.67
2023-04-02T15:45:55.785Z,1.70
2023-04-02T15:48:49.014Z,1.70
2023-04-02T15:51:33.446Z,1.85
2023-04-02T15:54:11.005Z,1.55
2023-04-02T15:56:48.774Z,1.50
2023-04-02T15:59:46.637Z,1.63
2023-04-02T16:02:41.607Z,1.70
2023-04-02T16:05:23.101Z,1.50
2023-04-02T16:08:04.988Z,1.40
2023-04-02T16:13:17.948Z,1.50
2023-04-02T16:15:50.989Z,1.55
2023-04-02T16:18:30.914Z,2.03
2023-04-02T16:21:03.236Z,1.70
2023-04-02T16:23:35.433Z,1.40
2023-04-02T16:26:17.920Z,1.80
2023-04-02T16:28:59.228Z,1.45
2023-04-02T16:31:32.469Z,1.53
2023-04-02T16:34:06.596Z,1.60
2023-04-02T16:36:48.913Z,1.55
2023-04-02T16:39:29.803Z,1.55
2023-04-02T16:42:10.146Z,1.60
2023-04-02T16:44:52.002Z,1.73
2023-04-02T16:47:31.572Z,2.08
2023-04-02T16:50:04.677Z,1.70
2023-04-02T16:52:44.067Z,1.60
2023-04-02T16:55:31.441Z,1.60
2023-04-02T16:58:11.701Z,1.50
2023-04-02T17:00:48.187Z,1.45
2023-04-02T17:04:01.162Z,1.80
2023-04-02T17:06:41.734Z,1.48
2023-04-02T17:09:18.819Z,1.55
2023-04-02T17:11:51.189Z,1.20
2023-04-02T17:14:28.512Z,1.58
2023-04-02T17:17:01.813Z,1.50
2023-04-02T17:22:02.041Z,1.50
2023-04-02T17:24:34.915Z,1.45
2023-04-02T17:27:08.330Z,1.50
2023-04-02T17:29:40.706Z,1.58
2023-04-02T17:32:17.289Z,1.48
2023-04-02T17:34:45.249Z,1.40
2023-04-02T17:37:23.411Z,1.20
2023-04-02T17:40:01.241Z,1.48
2023-04-02T17:42:42.002Z,1.65
2023-04-02T17:45:19.297Z,1.40
2023-04-02T17:47:56.701Z,1.33
2023-04-02T17:50:53.716Z,1.40
2023-04-02T17:53:33.240Z,1.60
2023-04-02T17:56:12.459Z,1.65
2023-04-02T17:58:57.991Z,2.22
2023-04-02T18:01:32.273Z,1.42
2023-04-02T18:04:11.834Z,1.30
2023-04-02T18:06:48.814Z,1.65
2023-04-02T18:09:33.884Z,1.40
2023-04-02T18:12:13.095Z,1.40
2023-04-02T18:14:57.351Z,1.42
2023-04-02T18:17:36.381Z,1.30
2023-04-02T18:20:17.938Z,1.38
2023-04-02T18:22:54.085Z,1.90
2023-04-02T18:25:30.259Z,1.23
2023-04-02T18:28:11.738Z,1.50
2023-04-02T18:30:47.860Z,1.30
2023-04-02T18:33:38.147Z,1.55
2023-04-02T18:36:18.067Z,1.70
2023-04-02T18:38:52.392Z,1.40
2023-04-02T18:41:32.943Z,1.60
2023-04-02T18:44:15.710Z,1.23
2023-04-02T18:46:52.434Z,1.70
2023-04-02T18:49:29.420Z,1.38
2023-04-02T18:52:02.384Z,1.63
2023-04-02T18:54:33.744Z,1.60
2023-04-02T18:57:03.983Z,1.50
2023-04-02T18:59:39.271Z,1.23
2023-04-02T19:02:30.770Z,1.80
2023-04-02T19:05:05.051Z,1.58
2023-04-02T19:07:37.990Z,1.50
2023-04-02T19:10:19.653Z,1.55
2023-04-02T19:12:47.664Z,1.50
2023-04-02T19:15:17.526Z,1.85
2023-04-02T19:18:07.500Z,1.60
2023-04-02T19:20:45.970Z,1.58
2023-04-02T19:23:30.029Z,1.45
2023-04-02T19:26:02.809Z,1.67
2023-04-02T19:28:34.867Z,1.80
2023-04-02T19:31:16.523Z,1.88
2023-04-02T19:33:51.022Z,1.90
2023-04-02T19:36:44.428Z,1.50
2023-04-02T19:39:47.864Z,1.50
2023-04-02T19:42:26.524Z,1.80
2023-04-02T19:44:55.824Z,1.92
2023-04-02T19:47:24.564Z,1.77
2023-04-02T19:49:52.830Z,1.38
2023-04-02T19:52:22.234Z,1.75
2023-04-02T19:54:50.326Z,1.90
2023-04-02T19:57:18.558Z,1.90
2023-04-02T19:59:46.617Z,1.80
2023-04-02T20:02:14.816Z,2.40
2023-04-02T20:04:42.840Z,1.83
2023-04-02T20:07:10.829Z,2.17
2023-04-02T20:09:40.238Z,1.63
2023-04-02T20:12:08.322Z,1.77
2023-04-02T20:14:36.356Z,2.00
2023-04-02T20:17:04.587Z,1.98
2023-04-02T20:19:32.666Z,1.77
2023-04-02T20:22:00.731Z,2.10
2023-04-02T20:24:28.784Z,2.17
2023-04-02T20:26:58.217Z,2.60
2023-04-02T20:29:28.072Z,2.05
2023-04-02T20:31:56.430Z,2.05
2023-04-02T20:34:24.544Z,2.40
2023-04-02T20:36:53.690Z,2.28
2023-04-02T20:39:21.651Z,2.20
2023-04-02T20:41:49.896Z,2.00
2023-04-02T20:44:19.274Z,2.53
2023-04-02T20:46:47.348Z,2.00
2023-04-02T20:49:15.580Z,2.75
2023-04-02T20:51:43.559Z,2.25
2023-04-02T20:54:11.664Z,2.20
2023-04-02T20:56:39.780Z,2.17
2023-04-02T20:59:07.860Z,2.30
2023-04-02T21:01:37.543Z,2.58
2023-04-02T21:04:06.060Z,2.72
2023-04-02T21:06:35.827Z,2.33
2023-04-02T21:09:06.314Z,2.20
2023-04-02T21:11:37.384Z,2.78
2023-04-02T21:14:05.558Z,2.55
2023-04-02T21:16:33.782Z,2.40
2023-04-02T21:19:05.585Z,2.50
2023-04-02T21:21:34.177Z,2.22
2023-04-02T21:24:03.659Z,2.75
2023-04-02T21:26:34.834Z,2.30
2023-04-02T21:29:03.300Z,2.47
2023-04-02T21:31:34.617Z,3.15
2023-04-02T21:34:05.112Z,2.25
2023-04-02T21:36:35.464Z,2.42
2023-04-02T21:39:05.513Z,2.15
2023-04-02T21:41:35.328Z,2.00
2023-04-02T21:44:05.537Z,2.17
2023-04-02T21:46:36.902Z,2.03
2023-04-02T21:49:08.414Z,2.15
2023-04-02T21:51:38.489Z,2.07
2023-04-02T21:54:07.647Z,2.00
2023-04-02T21:56:37.565Z,2.00
2023-04-02T21:59:06.993Z,2.10
2023-04-02T22:01:37.958Z,2.08
2023-04-02T22:04:09.401Z,2.10
2023-04-02T22:06:39.338Z,2.40
2023-04-02T22:09:10.704Z,1.88
2023-04-02T22:11:41.507Z,2.35
2023-04-02T22:14:09.905Z,2.00
2023-04-02T22:16:38.656Z,1.75
2023-04-02T22:19:10.644Z,1.80
2023-04-02T22:21:39.744Z,1.77
2023-04-02T22:24:12.128Z,2.15
2023-04-02T22:29:09.274Z,1.73
2023-04-02T22:31:37.347Z,2.13
2023-04-02T22:34:07.680Z,2.22
2023-04-02T22:36:36.392Z,2.03
2023-04-02T22:39:06.810Z,2.38
2023-04-02T22:41:35.594Z,2.33
2023-04-02T22:44:03.861Z,2.17
2023-04-02T22:46:32.644Z,2.20
2023-04-02T22:49:00.832Z,2.35
2023-04-02T22:51:31.077Z,1.85
2023-04-02T22:53:59.091Z,1.65
2023-04-02T22:56:32.029Z,2.30
2023-04-02T22:59:00.780Z,1.88
2023-04-02T23:01:31.705Z,2.00
2023-04-02T23:04:00.007Z,2.13
2023-04-02T23:06:29.977Z,1.80
2023-04-02T23:08:58.212Z,2.10
2023-04-02T23:11:27.919Z,1.80
2023-04-02T23:13:58.077Z,2.10
2023-04-02T23:16:28.808Z,1.80
2023-04-02T23:18:57.708Z,1.60
2023-04-02T23:21:26.147Z,1.70
2023-04-02T23:23:55.782Z,1.65
2023-04-02T23:26:26.076Z,1.63
2023-04-02T23:28:54.126Z,1.42
2023-04-02T23:31:23.672Z,1.80
2023-04-02T23:33:51.655Z,1.35
2023-04-02T23:36:23.465Z,1.70
2023-04-02T23:38:54.989Z,1.90
2023-04-02T23:41:26.733Z,1.88
2023-04-02T23:43:55.337Z,2.00
2023-04-02T23:46:23.688Z,1.90
2023-04-02T23:48:52.189Z,1.75
2023-04-02T23:51:20.555Z,1.50
2023-04-02T23:53:48.642Z,1.63
2023-04-02T23:56:17.059Z,1.50
2023-04-02T23:58:46.526Z,1.67
